createdAt,value
2019-04-27T00:04:38.914Z,0
2019-04-27T00:10:13.482Z,0
2019-04-27T00:15:44.273Z,0
2019-04-27T00:21:17.016Z,0
2019-04-27T00:26:49.758Z,0
2019-04-27T00:32:23.102Z,0
2019-04-27T00:37:55.116Z,0
2019-04-27T00:43:27.806Z,0
2019-04-27T00:49:00.526Z,0
2019-04-27T00:54:33.958Z,0
2019-04-27T01:00:05.932Z,0
2019-04-27T01:05:38.603Z,0
2019-04-27T01:11:11.312Z,0
2019-04-27T01:16:44.075Z,0
2019-04-27T01:22:16.804Z,0
2019-04-27T01:27:49.518Z,0
2019-04-27T01:33:22.217Z,0
2019-04-27T01:38:54.873Z,0
2019-04-27T01:44:29.336Z,0
2019-04-27T01:50:00.326Z,0
2019-04-27T01:55:33.076Z,0
2019-04-27T02:01:05.662Z,0
2019-04-27T02:06:38.595Z,0
2019-04-27T02:12:11.114Z,0
2019-04-27T02:17:43.773Z,0
2019-04-27T02:23:16.482Z,0
2019-04-27T02:28:49.589Z,0
2019-04-27T02:34:21.865Z,0
2019-04-27T02:39:54.593Z,0
2019-04-27T02:45:30.110Z,0
2019-04-27T02:51:00.039Z,0
2019-04-27T02:56:32.572Z,0
2019-04-27T03:02:05.167Z,0
2019-04-27T03:07:39.796Z,0
2019-04-27T03:13:11.190Z,0
2019-04-27T03:18:43.252Z,0
2019-04-27T03:24:15.973Z,0
2019-04-27T03:29:49.836Z,0
2019-04-27T03:35:22.910Z,0
2019-04-27T03:40:54.170Z,0
2019-04-27T03:46:26.886Z,0
2019-04-27T03:52:00.219Z,0
2019-04-27T03:57:32.319Z,0
2019-04-27T04:03:04.989Z,0
2019-04-27T04:08:39.653Z,0
2019-04-27T04:14:10.424Z,0
2019-04-27T04:19:51.770Z,10.7
2019-04-27T04:25:17.256Z,20.4
2019-04-27T04:30:50.823Z,13.2
2019-04-27T04:36:24.366Z,19.2
2019-04-27T04:41:59.640Z,11.9
2019-04-27T04:47:32.753Z,13.2
2019-04-27T04:53:04.897Z,19.2
2019-04-27T04:58:39.220Z,15.6
2019-04-27T05:04:12.003Z,20.4
2019-04-27T05:09:45.572Z,22.8
2019-04-27T05:15:20.657Z,25.1
2019-04-27T05:20:52.733Z,21.5
2019-04-27T05:26:26.262Z,20.4
2019-04-27T05:32:01.177Z,19.2
2019-04-27T05:37:33.446Z,15.6
2019-04-27T05:43:02.533Z,13.2
2019-04-27T05:48:36.072Z,18
2019-04-27T05:54:09.736Z,21.5
2019-04-27T05:59:43.255Z,22.8
2019-04-27T06:05:18.778Z,15.6
2019-04-27T06:10:45.966Z,13.2
2019-04-27T06:16:19.618Z,13.2
2019-04-27T06:21:53.167Z,19.2
2019-04-27T06:27:30.185Z,16.8
2019-04-27T06:33:00.321Z,20.4
2019-04-27T06:38:33.974Z,21.5
2019-04-27T06:49:41.095Z,19.2
2019-04-27T06:55:14.681Z,20.4
2019-04-27T07:00:49.669Z,20.4
2019-04-27T07:06:21.930Z,19.2
2019-04-27T07:11:55.570Z,18
2019-04-27T07:17:29.252Z,20.4
2019-04-27T07:23:03.167Z,18
2019-04-27T07:28:36.478Z,25.1
2019-04-27T07:34:10.139Z,28.8
2019-04-27T07:39:43.774Z,18
2019-04-27T07:45:17.936Z,19.2
2019-04-27T07:50:51.227Z,20.4
2019-04-27T07:56:24.909Z,19.2
2019-04-27T08:01:59.084Z,15.6
2019-04-27T08:07:32.266Z,10.7
2019-04-27T08:13:05.981Z,14.4
2019-04-27T08:18:39.681Z,18
2019-04-27T08:24:13.270Z,18
2019-04-27T08:29:48.590Z,16.8
2019-04-27T08:35:21.544Z,21.5
2019-04-27T08:40:54.421Z,22.8
2019-04-27T08:46:28.599Z,15.6
2019-04-27T08:52:02.017Z,22.8
2019-04-27T08:57:35.581Z,16.8
2019-04-27T09:03:09.556Z,16.8
2019-04-27T09:08:49.496Z,28.8
2019-04-27T09:14:21.787Z,23.9
2019-04-27T09:19:55.643Z,25.1
2019-04-27T09:25:29.763Z,25.1
2019-04-27T09:31:03.688Z,21.5
2019-04-27T09:36:37.616Z,21.5
2019-04-27T09:42:11.847Z,22.8
2019-04-27T09:47:46.789Z,25.1
2019-04-27T09:53:19.987Z,28.8
2019-04-27T09:58:55.820Z,27.6
2019-04-27T10:04:28.758Z,27.6
2019-04-27T10:10:03.325Z,27.6
2019-04-27T10:15:37.842Z,27.6
2019-04-27T10:21:12.685Z,42
2019-04-27T10:26:47.656Z,32.3
2019-04-27T10:32:22.523Z,29.9
2019-04-27T10:37:57.425Z,28.8
2019-04-27T10:43:36.731Z,33.6
2019-04-27T10:49:11.501Z,33.6
2019-04-27T10:54:46.124Z,31.2
2019-04-27T11:00:20.762Z,34.8
2019-04-27T11:05:56.943Z,29.9
2019-04-27T11:11:29.777Z,23.9
2019-04-27T11:17:04.102Z,22.8
2019-04-27T11:22:38.339Z,26.4
2019-04-27T11:28:12.617Z,27.6
2019-04-27T11:33:46.884Z,29.9
2019-04-27T11:39:21.324Z,27.6
2019-04-27T11:44:58.190Z,19.2
2019-04-27T11:50:30.196Z,26.4
2019-04-27T11:56:04.842Z,34.8
2019-04-27T12:01:39.554Z,26.4
2019-04-27T12:07:14.428Z,34.8
2019-04-27T12:12:49.707Z,31.2
2019-04-27T12:18:24.856Z,34.8
2019-04-27T12:23:59.804Z,27.6
2019-04-27T12:29:34.696Z,32.3
2019-04-27T12:35:09.273Z,28.8
2019-04-27T12:40:43.732Z,26.4
2019-04-27T12:46:18.296Z,26.4
2019-04-27T12:51:52.399Z,28.8
2019-04-27T12:57:27.620Z,23.9
2019-04-27T13:03:00.623Z,27.6
2019-04-27T13:08:35.701Z,28.8
2019-04-27T13:14:09.045Z,26.4
2019-04-27T13:19:43.459Z,26.4
2019-04-27T13:25:17.866Z,28.8
2019-04-27T13:30:52.300Z,33.6
2019-04-27T13:36:26.716Z,34.8
2019-04-27T13:42:00.830Z,26.4
2019-04-27T13:47:36.613Z,32.3
2019-04-27T13:53:08.918Z,36
2019-04-27T13:58:42.849Z,29.9
2019-04-27T14:04:16.801Z,28.8
2019-04-27T14:09:46.395Z,33.6
2019-04-27T14:15:20.340Z,33.6
2019-04-27T14:20:54.395Z,22.8
2019-04-27T14:26:28.539Z,23.9
2019-04-27T14:32:02.440Z,26.4
2019-04-27T14:37:36.404Z,34.8
2019-04-27T14:43:10.353Z,23.9
2019-04-27T14:48:44.386Z,26.4
2019-04-27T14:54:18.841Z,28.8
2019-04-27T14:59:52.453Z,22.8
2019-04-27T15:05:26.513Z,29.9
2019-04-27T15:11:00.639Z,29.9
2019-04-27T15:16:37.760Z,26.4
2019-04-27T15:22:12.586Z,31.2
2019-04-27T15:27:42.954Z,23.9
2019-04-27T15:33:17.609Z,20.4
2019-04-27T15:38:53.656Z,27.6
2019-04-27T15:44:25.283Z,22.8
2019-04-27T15:49:59.433Z,26.4
2019-04-27T15:55:36.754Z,26.4
2019-04-27T16:01:11.220Z,25.1
2019-04-27T16:06:42.755Z,28.8
2019-04-27T16:12:18.113Z,22.8
2019-04-27T16:17:55.733Z,21.5
2019-04-27T16:23:24.871Z,18
2019-04-27T16:28:59.151Z,26.4
2019-04-27T16:34:37.733Z,18
2019-04-27T16:40:10.719Z,22.8
2019-04-27T16:45:43.167Z,27.6
2019-04-27T16:51:18.390Z,20.4
2019-04-27T16:56:58.201Z,19.2
2019-04-27T17:02:26.101Z,22.8
2019-04-27T17:08:00.241Z,28.8
2019-04-27T17:13:34.432Z,21.5
2019-04-27T17:30:19.500Z,43.1
2019-04-27T17:35:53.215Z,38.4
2019-04-27T17:41:28.265Z,37.1
2019-04-27T17:47:01.343Z,34.8
2019-04-27T17:52:37.784Z,36
2019-04-27T17:58:09.872Z,25.1
2019-04-27T18:03:43.914Z,38.4
2019-04-27T18:09:22.007Z,34.8
2019-04-27T18:14:55.685Z,32.3
2019-04-27T18:20:29.506Z,37.1
2019-04-27T18:26:03.113Z,46.8
2019-04-27T18:31:38.300Z,51.6
2019-04-27T18:37:10.494Z,29.9
2019-04-27T18:42:44.115Z,28.8
2019-04-27T18:48:18.681Z,23.9
2019-04-27T18:53:54.070Z,19.2
2019-04-27T18:59:24.916Z,15.6
2019-04-27T19:04:59.520Z,39.6
2019-04-27T19:10:32.302Z,18
2019-04-27T19:16:05.851Z,23.9
2019-04-27T19:21:39.434Z,29.9
2019-04-27T19:27:17.723Z,21.5
2019-04-27T19:32:46.727Z,32.3
2019-04-27T19:38:20.338Z,22.8
2019-04-27T19:43:54.018Z,20.4
2019-04-27T19:49:29.349Z,21.5
2019-04-27T19:55:01.143Z,20.4
2019-04-27T20:00:34.591Z,14.4
2019-04-27T20:06:08.122Z,14.4
2019-04-27T20:11:41.630Z,16.8
2019-04-27T20:17:15.000Z,10.7
2019-04-27T20:22:48.431Z,20.4
2019-04-27T20:28:23.056Z,18
2019-04-27T20:33:55.488Z,20.4
2019-04-27T20:39:29.231Z,58.8
2019-04-27T20:45:02.674Z,52.8
2019-04-27T20:50:35.849Z,56.4
2019-04-27T20:56:09.000Z,22.8
2019-04-27T21:01:41.807Z,18
2019-04-27T21:07:14.706Z,14.4
2019-04-27T21:12:47.590Z,11.9
2019-04-27T21:18:21.679Z,11.9
2019-04-27T21:46:09.476Z,21.5
2019-04-27T21:51:42.697Z,19.2
2019-04-27T21:57:15.877Z,20.4
2019-04-27T22:02:51.030Z,13.2
2019-04-27T22:08:22.102Z,15.6
2019-04-27T22:13:55.304Z,16.8
2019-04-27T22:19:28.482Z,14.4
2019-04-27T22:25:01.720Z,15.6
2019-04-27T22:30:34.797Z,19.2
2019-04-27T22:36:10.799Z,14.4
2019-04-27T22:41:41.730Z,10.7
2019-04-27T22:47:14.437Z,13.2
2019-04-27T22:52:47.387Z,10.7
2019-04-27T22:58:21.761Z,11.9
2019-04-27T23:03:53.782Z,11.9
2019-04-27T23:09:26.854Z,10.7
2019-04-27T23:14:59.865Z,13.2
2019-04-27T23:20:33.118Z,8.4
2019-04-27T23:26:06.269Z,10.7
2019-04-27T23:31:40.773Z,11.9
2019-04-27T23:37:12.701Z,15.6
2019-04-27T23:42:46.037Z,16.8
2019-04-27T23:48:19.166Z,18
2019-04-27T23:53:52.391Z,11.9
2019-04-27T23:59:25.540Z,11.9
